Terminal Aerodrome Forecast
Issued by NWS Des Moines, IA

Home | Current Version | Previous Version | Text Only | Print | Product List | Glossary On
Versions: 1 2 3 4 5 6 7 8 9 10 11 12 13 14 15 16 17 18 19 20 21 22 23 24 25 26 27 28
000
FTUS43 KDMX 230938 AAA
TAFALO
TAF AMD
KALO 230938Z 2310/2406 31008KT 4SM BR OVC006
      TEMPO 2311/2313 OVC004
     FM231600 31006KT 5SM BR SCT005 OVC012
     FM232300 34004KT 6SM BR SCT012 BKN080
     FM240400 11003KT 3SM BR BKN012 OVC070=

USA.gov is the U.S. government's official web portal to all federal, state and local government web resources and services.